Time;durP1;ratioP1;P1;durP2;ratioP2;P2;SDS_P1;SDS_P2;PMS_P1;PMS_P2;Temp;Humidity;BMP_temperature;BMP_pressure;BME280_temperature;BME280_humidity;BME280_pressure;Samples;Min_cycle;Max_cycle;Signal;HPM_P1;HPM_P2
2023/06/03 00:02:21;;;;;;;5.20;1.30;;;11.20;99.90;;;;;;5008523;28;20591;-64
2023/06/03 00:04:47;;;;;;;0.70;0.70;;;11.10;99.90;;;;;;4986021;28;20402;-64
2023/06/03 00:07:14;;;;;;;1.38;1.10;;;11.10;99.90;;;;;;4973900;28;20229;-64
2023/06/03 00:09:41;;;;;;;1.10;1.00;;;11.00;99.90;;;;;;4982233;28;20221;-64
2023/06/03 00:12:08;;;;;;;1.25;1.10;;;10.90;99.90;;;;;;4983229;28;20214;-64
2023/06/03 00:14:35;;;;;;;4.25;1.45;;;10.80;99.90;;;;;;4987113;28;20201;-64
2023/06/03 00:17:02;;;;;;;2.60;1.00;;;10.80;99.90;;;;;;5003109;28;20208;-64
2023/06/03 00:19:30;;;;;;;1.75;0.90;;;10.80;99.90;;;;;;4986361;28;20198;-64
2023/06/03 00:22:00;;;;;;;1.80;1.10;;;10.80;99.90;;;;;;4967962;28;20420;-64
2023/06/03 00:24:27;;;;;;;2.65;0.75;;;10.70;99.90;;;;;;4986133;28;20206;-64
2023/06/03 00:26:53;;;;;;;1.50;1.27;;;10.70;99.90;;;;;;4984065;28;20668;-64
2023/06/03 00:29:20;;;;;;;1.27;1.05;;;10.80;99.90;;;;;;4991360;28;20207;-64
2023/06/03 00:31:48;;;;;;;6.63;0.90;;;10.80;99.90;;;;;;5000256;28;20229;-64
2023/06/03 00:34:15;;;;;;;1.52;1.10;;;10.80;99.90;;;;;;4992335;28;20207;-64
2023/06/03 00:36:43;;;;;;;1.45;1.00;;;10.80;99.90;;;;;;4970230;28;20218;-64
2023/06/03 00:39:10;;;;;;;1.60;0.95;;;10.80;99.90;;;;;;5000303;28;20194;-64
2023/06/03 00:41:37;;;;;;;3.92;1.38;;;10.80;99.90;;;;;;4973647;28;20202;-64
2023/06/03 00:44:03;;;;;;;1.75;1.08;;;10.80;99.90;;;;;;5004354;28;20677;-65
2023/06/03 00:46:34;;;;;;;1.10;1.00;;;10.80;99.90;;;;;;4990234;28;20230;-64
2023/06/03 00:49:01;;;;;;;2.70;1.13;;;10.70;99.90;;;;;;5003624;28;20211;-64
2023/06/03 00:51:29;;;;;;;3.15;1.10;;;10.80;99.90;;;;;;4990502;28;20194;-64
2023/06/03 00:53:57;;;;;;;1.98;1.20;;;10.80;99.90;;;;;;4973712;28;20506;-64
2023/06/03 00:56:25;;;;;;;3.35;0.95;;;10.70;99.90;;;;;;4989834;28;20198;-64
2023/06/03 00:58:52;;;;;;;3.00;1.02;;;10.80;99.90;;;;;;4973241;28;20792;-64
2023/06/03 01:01:21;;;;;;;2.80;1.25;;;10.70;99.90;;;;;;4989334;28;20699;-64
2023/06/03 01:03:48;;;;;;;2.38;1.00;;;10.70;99.90;;;;;;4991705;28;20198;-64
2023/06/03 01:06:27;;;;;;;5.57;1.15;;;10.70;99.90;;;;;;4994779;28;20234;-64
2023/06/03 01:09:03;;;;;;;6.50;1.20;;;10.60;99.90;;;;;;4974262;28;20202;-64
2023/06/03 01:11:37;;;;;;;1.73;1.08;;;10.60;99.90;;;;;;4987950;28;20214;-64
2023/06/03 01:14:10;;;;;;;2.67;1.35;;;10.60;99.90;;;;;;4988823;28;20210;-64
2023/06/03 01:16:40;;;;;;;4.13;1.02;;;10.60;99.90;;;;;;4986192;28;20195;-64
2023/06/03 01:19:14;;;;;;;5.65;1.25;;;10.50;99.90;;;;;;4991773;28;20225;-64
2023/06/03 01:21:45;;;;;;;1.15;0.82;;;10.60;99.90;;;;;;4989749;28;20206;-64
2023/06/03 01:26:45;;;;;;;1.63;1.10;;;10.40;99.90;;;;;;4989542;28;20314;-64
2023/06/03 01:29:12;;;;;;;2.33;1.48;;;10.40;99.90;;;;;;4979477;28;21086;-64
2023/06/03 01:31:38;;;;;;;1.38;1.08;;;10.30;99.90;;;;;;4990930;28;20735;-64
2023/06/03 01:34:06;;;;;;;1.67;1.10;;;10.40;99.90;;;;;;4985106;28;20514;-64
2023/06/03 01:36:33;;;;;;;1.67;1.20;;;10.40;99.90;;;;;;4988286;28;20210;-64
2023/06/03 01:39:00;;;;;;;1.88;0.90;;;10.30;99.90;;;;;;4970672;28;20723;-64
2023/06/03 01:41:28;;;;;;;2.83;1.10;;;10.30;99.90;;;;;;4983991;28;20203;-64
2023/06/03 01:43:55;;;;;;;1.88;1.40;;;10.20;99.90;;;;;;4985526;28;20212;-64
2023/06/03 01:46:22;;;;;;;2.58;1.08;;;10.10;99.90;;;;;;4991630;28;20283;-64
2023/06/03 01:48:49;;;;;;;2.90;1.20;;;9.90;99.90;;;;;;4994221;28;20202;-64
2023/06/03 01:51:15;;;;;;;1.40;1.30;;;9.70;99.90;;;;;;4997630;28;20199;-64
2023/06/03 01:53:43;;;;;;;1.95;1.35;;;9.60;99.90;;;;;;4972605;28;20252;-64
2023/06/03 01:56:10;;;;;;;3.15;1.42;;;9.60;99.90;;;;;;4993228;28;20198;-63
2023/06/03 01:58:38;;;;;;;3.63;1.27;;;9.50;99.90;;;;;;4984287;28;20736;-64
2023/06/03 02:01:05;;;;;;;2.83;1.10;;;9.50;99.90;;;;;;5005015;28;20206;-64
2023/06/03 02:03:32;;;;;;;4.43;1.10;;;9.50;99.90;;;;;;4976439;28;20210;-64
2023/06/03 02:05:59;;;;;;;4.70;1.20;;;9.40;99.90;;;;;;5005003;28;20206;-64
2023/06/03 02:08:26;;;;;;;2.65;1.40;;;9.20;99.90;;;;;;4988374;28;20233;-64
2023/06/03 02:10:53;;;;;;;1.90;1.00;;;9.20;99.90;;;;;;4971108;28;20691;-64
2023/06/03 02:13:20;;;;;;;2.60;1.27;;;9.10;99.90;;;;;;4986386;28;20207;-64
2023/06/03 02:15:48;;;;;;;3.30;0.93;;;9.10;99.90;;;;;;4974078;28;20579;-64
2023/06/03 02:18:17;;;;;;;4.68;1.25;;;9.00;99.90;;;;;;4983393;28;20210;-64
2023/06/03 02:20:45;;;;;;;1.33;1.23;;;9.10;99.90;;;;;;4997487;28;20265;-64
2023/06/03 02:23:12;;;;;;;2.63;1.35;;;9.10;99.90;;;;;;4994465;28;20202;-64
2023/06/03 02:25:40;;;;;;;4.93;1.50;;;9.10;99.90;;;;;;4972661;28;20338;-65
2023/06/03 02:28:07;;;;;;;1.75;1.13;;;9.30;99.90;;;;;;4987024;28;20230;-64
2023/06/03 02:30:34;;;;;;;2.72;1.50;;;9.20;99.90;;;;;;4983635;28;20231;-64
2023/06/03 02:33:03;;;;;;;1.42;1.23;;;9.20;99.90;;;;;;4990792;28;20221;-64
2023/06/03 02:35:30;;;;;;;2.50;1.20;;;9.00;99.90;;;;;;4994683;28;20206;-64
2023/06/03 02:37:57;;;;;;;1.73;1.30;;;8.90;99.90;;;;;;4996613;28;20331;-63
2023/06/03 02:40:24;;;;;;;2.70;1.33;;;9.00;99.90;;;;;;4968635;28;20233;-64
2023/06/03 02:42:51;;;;;;;2.60;1.25;;;9.10;99.90;;;;;;4990827;28;20202;-64
2023/06/03 02:45:18;;;;;;;1.17;0.90;;;9.20;99.90;;;;;;4986402;28;20889;-64
2023/06/03 02:47:45;;;;;;;3.20;1.90;;;9.20;99.90;;;;;;5002079;28;20222;-64
2023/06/03 02:50:13;;;;;;;1.45;1.20;;;9.10;99.90;;;;;;4987103;28;20209;-64
2023/06/03 02:52:40;;;;;;;1.10;1.00;;;9.10;99.90;;;;;;4988191;28;20242;-64
2023/06/03 02:55:08;;;;;;;2.33;1.42;;;9.10;99.90;;;;;;4987910;28;20432;-64
2023/06/03 02:57:35;;;;;;;2.17;1.35;;;9.10;99.90;;;;;;4966276;28;20828;-64
2023/06/03 03:00:05;;;;;;;1.70;1.38;;;9.10;99.90;;;;;;4985998;28;20418;-64
2023/06/03 03:02:33;;;;;;;1.42;1.33;;;9.10;99.90;;;;;;4986519;28;21175;-64
2023/06/03 03:04:59;;;;;;;2.13;1.50;;;9.00;99.90;;;;;;4985852;28;20230;-64
2023/06/03 03:07:28;;;;;;;2.00;1.30;;;9.00;99.90;;;;;;5001026;28;20229;-64
2023/06/03 03:09:55;;;;;;;2.08;1.35;;;9.00;99.90;;;;;;4990443;28;20203;-64
2023/06/03 03:12:22;;;;;;;3.05;1.55;;;9.00;99.90;;;;;;4976366;28;20207;-64
2023/06/03 03:14:49;;;;;;;1.40;1.10;;;8.90;99.90;;;;;;5000484;28;20222;-64
2023/06/03 03:17:15;;;;;;;1.58;1.30;;;8.90;99.90;;;;;;4984696;28;20463;-64
2023/06/03 03:19:42;;;;;;;1.73;1.60;;;8.90;99.90;;;;;;5002885;28;20202;-64
2023/06/03 03:22:09;;;;;;;3.35;1.30;;;8.80;99.90;;;;;;4976887;28;20910;-64
2023/06/03 03:24:38;;;;;;;1.65;1.13;;;8.80;99.90;;;;;;5001807;28;20198;-64
2023/06/03 03:27:05;;;;;;;2.72;1.25;;;8.90;99.90;;;;;;4984370;28;20226;-64
2023/06/03 03:29:33;;;;;;;2.22;1.27;;;8.90;99.90;;;;;;4975815;28;20595;-64
2023/06/03 03:32:07;;;;;;;1.73;1.38;;;8.80;99.90;;;;;;4949935;28;20230;-64
2023/06/03 03:34:36;;;;;;;1.30;1.20;;;8.80;99.90;;;;;;4998054;28;20194;-64
2023/06/03 03:37:03;;;;;;;2.78;1.55;;;8.70;99.90;;;;;;4983643;28;20202;-64
2023/06/03 03:39:31;;;;;;;2.23;1.40;;;8.60;99.90;;;;;;4986817;28;20206;-64
2023/06/03 03:41:59;;;;;;;3.33;1.35;;;8.60;99.90;;;;;;4987163;28;20202;-64
2023/06/03 03:44:29;;;;;;;2.58;1.40;;;8.70;99.90;;;;;;4973602;28;20206;-64
2023/06/03 03:47:01;;;;;;;2.25;1.27;;;8.80;99.90;;;;;;4999049;28;20264;-64
2023/06/03 03:49:30;;;;;;;1.88;1.23;;;8.80;99.90;;;;;;4983688;28;20264;-64
2023/06/03 03:51:58;;;;;;;2.47;1.63;;;8.80;99.90;;;;;;4987475;28;20209;-64
2023/06/03 03:54:25;;;;;;;2.73;1.40;;;8.90;99.90;;;;;;4982799;28;20548;-64
2023/06/03 03:56:55;;;;;;;5.63;2.13;;;8.90;99.90;;;;;;4996139;28;21000;-64
2023/06/03 03:59:27;;;;;;;3.53;1.30;;;9.00;99.90;;;;;;4972480;28;20214;-64
2023/06/03 04:01:54;;;;;;;3.08;1.38;;;9.00;99.90;;;;;;5001410;28;20202;-64
2023/06/03 04:04:37;;;;;;;2.05;1.20;;;9.00;99.90;;;;;;4986455;28;20707;-64
2023/06/03 04:07:04;;;;;;;2.53;1.50;;;9.00;99.90;;;;;;4990631;28;20230;-64
2023/06/03 04:09:31;;;;;;;3.08;1.40;;;9.00;99.90;;;;;;4978891;28;20217;-64
2023/06/03 04:11:58;;;;;;;2.47;1.42;;;8.90;99.90;;;;;;5001289;28;20502;-64
2023/06/03 04:14:44;;;;;;;1.95;1.30;;;8.90;99.90;;;;;;4964752;28;20780;-64
2023/06/03 04:17:13;;;;;;;2.67;1.50;;;9.00;99.90;;;;;;4998507;28;20217;-64
2023/06/03 04:19:41;;;;;;;1.27;1.17;;;9.00;99.90;;;;;;4982463;28;21101;-64
2023/06/03 04:22:09;;;;;;;1.88;1.40;;;9.10;99.90;;;;;;4989560;28;20209;-64
2023/06/03 04:24:38;;;;;;;1.75;1.45;;;9.10;99.90;;;;;;4983264;28;20392;-64
2023/06/03 04:27:06;;;;;;;1.75;1.33;;;9.20;99.90;;;;;;4993389;28;20731;-64
2023/06/03 04:29:34;;;;;;;3.15;1.15;;;9.30;99.90;;;;;;4988261;28;20206;-64
2023/06/03 04:32:01;;;;;;;1.83;1.30;;;9.30;99.90;;;;;;4976763;28;20698;-63
2023/06/03 04:34:30;;;;;;;1.60;1.23;;;9.20;99.90;;;;;;4996047;28;20719;-64
2023/06/03 04:36:57;;;;;;;2.28;1.40;;;9.30;99.90;;;;;;4990812;28;20206;-64
2023/06/03 04:39:24;;;;;;;3.90;1.42;;;9.40;99.90;;;;;;4984610;28;20209;-64
2023/06/03 04:41:52;;;;;;;2.55;0.90;;;9.40;99.90;;;;;;4996563;28;20198;-64
2023/06/03 04:44:21;;;;;;;1.67;1.42;;;9.50;99.90;;;;;;4986054;28;20206;-64
2023/06/03 04:46:49;;;;;;;2.40;1.40;;;9.50;99.90;;;;;;4977619;28;20293;-64
2023/06/03 04:49:16;;;;;;;1.88;1.30;;;9.60;99.90;;;;;;4991655;28;20210;-64
2023/06/03 04:51:44;;;;;;;1.25;1.15;;;9.60;99.90;;;;;;4988151;28;20202;-64
2023/06/03 04:54:11;;;;;;;1.83;1.60;;;9.60;99.90;;;;;;4989172;28;20194;-64
2023/06/03 04:56:38;;;;;;;2.08;1.15;;;9.70;99.90;;;;;;5004442;28;20511;-64
2023/06/03 04:59:04;;;;;;;2.22;1.40;;;9.70;99.90;;;;;;4999769;28;20219;-64
2023/06/03 05:01:36;;;;;;;9.70;2.72;;;9.80;99.90;;;;;;4961176;28;20215;-64
2023/06/03 05:04:05;;;;;;;5.28;1.23;;;9.90;99.90;;;;;;5001437;28;20202;-64
2023/06/03 05:06:34;;;;;;;7.63;1.42;;;10.00;99.90;;;;;;4987831;28;20913;-64
2023/06/03 05:09:01;;;;;;;2.72;1.60;;;10.10;99.90;;;;;;4986723;28;20357;-64
2023/06/03 05:11:27;;;;;;;1.88;1.60;;;10.20;99.90;;;;;;5001922;28;20670;-64
2023/06/03 05:13:54;;;;;;;1.25;1.15;;;10.30;99.90;;;;;;5003670;28;21107;-64
2023/06/03 05:16:21;;;;;;;2.40;1.40;;;10.30;99.90;;;;;;4995574;28;20364;-64
2023/06/03 05:18:48;;;;;;;1.50;1.30;;;10.50;99.90;;;;;;4975839;28;20281;-64
2023/06/03 05:21:19;;;;;;;4.28;1.40;;;10.50;99.90;;;;;;5000009;28;20207;-64
2023/06/03 05:23:46;;;;;;;2.75;1.42;;;10.60;99.90;;;;;;4986416;28;20202;-64
2023/06/03 05:26:13;;;;;;;2.85;1.45;;;10.70;99.90;;;;;;4988613;28;20202;-64
2023/06/03 05:28:39;;;;;;;1.83;1.27;;;10.80;99.90;;;;;;5004446;28;20273;-64
2023/06/03 05:31:06;;;;;;;3.13;1.50;;;10.80;99.90;;;;;;4995837;28;21727;-64
2023/06/03 05:33:35;;;;;;;2.55;1.38;;;10.90;99.90;;;;;;4973376;28;20213;-64
2023/06/03 05:36:02;;;;;;;2.42;1.40;;;11.00;99.90;;;;;;5004807;28;20237;-64
2023/06/03 05:38:30;;;;;;;3.13;1.30;;;11.00;99.90;;;;;;4986673;28;20195;-64
2023/06/03 05:40:58;;;;;;;2.38;1.25;;;11.20;99.90;;;;;;4981331;28;20470;-64
2023/06/03 05:43:24;;;;;;;4.95;1.35;;;11.20;99.90;;;;;;5000607;28;20203;-64
2023/06/03 05:45:51;;;;;;;3.53;1.48;;;11.30;99.90;;;;;;4994102;28;20579;-64
2023/06/03 05:48:18;;;;;;;2.63;1.40;;;11.40;99.90;;;;;;4975030;28;20226;-64
2023/06/03 05:50:49;;;;;;;3.55;1.17;;;11.40;99.90;;;;;;4999711;28;20195;-64
2023/06/03 05:53:20;;;;;;;2.35;1.35;;;11.40;99.90;;;;;;4990599;28;20221;-64
2023/06/03 05:55:48;;;;;;;1.20;1.02;;;11.50;99.90;;;;;;4972031;28;22748;-64
2023/06/03 05:58:15;;;;;;;5.88;1.20;;;11.60;99.90;;;;;;4997854;28;20294;-64
2023/06/03 06:00:42;;;;;;;4.57;1.27;;;11.60;99.90;;;;;;4993399;28;20248;-64
2023/06/03 06:03:09;;;;;;;3.53;1.30;;;11.70;99.90;;;;;;4989144;28;20222;-64
2023/06/03 06:05:36;;;;;;;3.40;1.10;;;11.80;99.90;;;;;;4969594;28;20210;-64
2023/06/03 06:08:03;;;;;;;2.60;1.27;;;11.90;99.90;;;;;;5003589;28;20230;-64
2023/06/03 06:10:30;;;;;;;1.90;1.63;;;12.00;99.90;;;;;;4972652;28;20210;-64
2023/06/03 06:12:58;;;;;;;2.13;1.48;;;12.10;99.90;;;;;;4983841;28;20199;-64
2023/06/03 06:15:29;;;;;;;3.88;1.20;;;12.20;99.90;;;;;;4999316;28;20203;-64
2023/06/03 06:17:56;;;;;;;2.55;1.30;;;12.20;99.90;;;;;;4982096;28;20202;-64
2023/06/03 06:20:23;;;;;;;3.55;1.48;;;12.40;99.90;;;;;;4968020;28;20347;-64
2023/06/03 06:22:50;;;;;;;1.42;1.20;;;12.40;99.90;;;;;;5001189;28;20223;-64
2023/06/03 06:25:17;;;;;;;1.38;1.15;;;12.50;99.90;;;;;;4995609;28;20261;-64
2023/06/03 06:27:45;;;;;;;2.50;1.02;;;12.50;99.90;;;;;;4974638;28;20321;-64
2023/06/03 06:30:15;;;;;;;2.30;1.52;;;12.60;99.90;;;;;;4997632;28;20209;-64
2023/06/03 06:32:49;;;;;;;5.32;1.30;;;12.60;99.90;;;;;;4993217;28;20586;-64
2023/06/03 06:35:17;;;;;;;2.80;1.40;;;12.70;99.90;;;;;;4956415;28;20676;-64
2023/06/03 06:37:44;;;;;;;1.42;1.33;;;12.80;99.90;;;;;;4993375;28;20230;-64
2023/06/03 06:40:16;;;;;;;1.65;1.20;;;12.90;99.90;;;;;;5000007;28;20862;-64
2023/06/03 06:42:43;;;;;;;4.47;1.10;;;12.90;99.90;;;;;;4950858;28;20302;-64
2023/06/03 06:45:16;;;;;;;1.70;1.10;;;12.90;99.90;;;;;;4986506;28;21079;-64
2023/06/03 06:47:43;;;;;;;1.48;1.10;;;13.00;99.90;;;;;;4982577;28;20309;-64
2023/06/03 06:50:30;;;;;;;5.90;1.38;;;13.00;99.90;;;;;;4965388;28;20213;-64
2023/06/03 06:52:57;;;;;;;2.55;1.30;;;13.10;99.90;;;;;;4997551;28;20194;-64
2023/06/03 06:55:42;;;;;;;3.40;1.20;;;13.10;99.90;;;;;;4998773;28;20758;-64
2023/06/03 06:58:10;;;;;;;2.63;1.00;;;13.20;99.90;;;;;;4970919;28;20980;-64
2023/06/03 07:00:39;;;;;;;1.85;1.25;;;13.20;99.90;;;;;;4979805;28;20205;-64
2023/06/03 07:03:07;;;;;;;2.72;1.50;;;13.30;99.90;;;;;;4983156;28;20303;-64
2023/06/03 07:05:34;;;;;;;2.10;1.30;;;13.30;99.90;;;;;;4963752;28;20754;-64
2023/06/03 07:08:01;;;;;;;2.13;1.35;;;13.40;99.90;;;;;;4962861;28;20264;-64
2023/06/03 07:10:29;;;;;;;2.30;1.33;;;13.50;99.90;;;;;;4988431;28;20972;-64
2023/06/03 07:12:56;;;;;;;2.05;1.23;;;13.60;99.90;;;;;;4964603;28;20205;-64
2023/06/03 07:15:23;;;;;;;1.95;1.48;;;13.60;99.90;;;;;;4969189;28;20198;-64
2023/06/03 07:17:52;;;;;;;1.35;1.00;;;13.80;99.90;;;;;;4978652;28;20222;-64
2023/06/03 07:20:21;;;;;;;2.13;1.30;;;13.90;99.90;;;;;;4985723;28;20297;-65
2023/06/03 07:22:48;;;;;;;2.08;1.40;;;13.90;99.90;;;;;;4959975;28;20308;-64
2023/06/03 07:25:31;;;;;;;1.63;1.17;;;13.90;99.90;;;;;;4990727;28;20553;-65
2023/06/03 07:27:58;;;;;;;2.17;1.30;;;14.00;99.90;;;;;;4983667;28;20229;-64
2023/06/03 07:30:25;;;;;;;1.83;1.08;;;14.00;99.90;;;;;;4972307;28;20404;-64
2023/06/03 07:32:59;;;;;;;3.25;1.02;;;14.00;99.90;;;;;;4990375;28;20460;-64
2023/06/03 07:35:26;;;;;;;1.30;1.20;;;14.00;99.90;;;;;;4975690;28;20230;-64
2023/06/03 07:37:53;;;;;;;1.08;0.98;;;14.00;99.90;;;;;;4954139;28;20631;-65
2023/06/03 07:40:22;;;;;;;1.40;1.20;;;14.10;99.90;;;;;;4984710;28;20451;-65
2023/06/03 07:42:50;;;;;;;1.60;1.02;;;14.10;99.90;;;;;;4959249;28;20460;-64
2023/06/03 07:45:17;;;;;;;0.90;0.90;;;14.20;99.90;;;;;;4978896;28;20301;-64
2023/06/03 07:47:44;;;;;;;1.25;1.15;;;14.20;99.90;;;;;;5000068;28;21111;-64
2023/06/03 07:50:23;;;;;;;0.70;0.70;;;14.30;99.90;;;;;;4990539;28;20399;-64
2023/06/03 07:52:57;;;;;;;3.40;1.10;;;14.40;99.90;;;;;;4953063;28;27211;-64
2023/06/03 07:55:24;;;;;;;1.80;0.90;;;14.40;99.90;;;;;;4996047;28;21011;-65
2023/06/03 07:57:51;;;;;;;1.20;1.10;;;14.40;99.90;;;;;;5002058;28;20245;-64
2023/06/03 08:00:19;;;;;;;1.35;1.25;;;14.40;99.90;;;;;;4970451;28;20816;-64
2023/06/03 08:02:46;;;;;;;1.33;1.10;;;14.50;99.90;;;;;;4964102;28;20272;-65
2023/06/03 08:05:14;;;;;;;5.60;1.75;;;14.50;99.90;;;;;;4981714;28;20317;-64
2023/06/03 08:07:45;;;;;;;3.13;0.90;;;14.50;99.90;;;;;;4963496;28;20316;-64
2023/06/03 08:10:23;;;;;;;1.20;0.80;;;14.50;99.90;;;;;;4991835;28;20338;-64
2023/06/03 08:12:50;;;;;;;1.58;0.77;;;14.60;99.90;;;;;;4998868;28;20579;-64
2023/06/03 08:15:27;;;;;;;2.58;0.98;;;14.50;99.90;;;;;;4962388;28;20226;-64
2023/06/03 08:17:55;;;;;;;1.98;0.80;;;14.50;99.90;;;;;;4992270;28;20371;-64
2023/06/03 08:20:24;;;;;;;0.75;0.75;;;14.50;99.90;;;;;;4969447;28;20317;-64
2023/06/03 08:22:53;;;;;;;0.80;0.80;;;14.70;99.90;;;;;;4974120;28;20792;-64
2023/06/03 08:25:20;;;;;;;4.28;0.80;;;14.80;99.90;;;;;;4969007;28;20448;-64
2023/06/03 08:27:47;;;;;;;0.90;0.90;;;14.80;99.90;;;;;;4998119;28;20194;-64
2023/06/03 08:30:15;;;;;;;2.60;1.08;;;14.70;99.90;;;;;;4976393;28;20591;-64
2023/06/03 08:32:42;;;;;;;0.68;0.68;;;14.80;99.90;;;;;;4986477;28;20296;-65
2023/06/03 08:35:11;;;;;;;1.58;0.90;;;14.80;99.90;;;;;;4965827;28;20268;-64
2023/06/03 08:37:38;;;;;;;1.70;0.98;;;14.90;99.90;;;;;;4978409;28;21202;-64
2023/06/03 08:40:09;;;;;;;0.80;0.80;;;15.10;99.90;;;;;;4952557;28;20276;-64
2023/06/03 08:42:42;;;;;;;1.13;1.00;;;15.10;99.90;;;;;;4984348;28;21339;-64
2023/06/03 08:45:11;;;;;;;2.88;1.80;;;15.30;99.90;;;;;;4967510;28;20248;-64
2023/06/03 08:47:57;;;;;;;0.65;0.65;;;15.30;99.90;;;;;;4978335;28;20304;-64
2023/06/03 08:50:26;;;;;;;1.17;0.77;;;15.30;99.90;;;;;;4977702;28;20238;-65
2023/06/03 08:52:54;;;;;;;1.10;0.85;;;15.40;99.90;;;;;;4973484;28;20504;-64
2023/06/03 08:55:22;;;;;;;2.40;1.05;;;15.50;99.90;;;;;;4959212;28;21354;-64
2023/06/03 08:58:00;;;;;;;1.75;0.70;;;15.50;99.90;;;;;;4993115;28;20788;-65
2023/06/03 09:00:27;;;;;;;1.25;0.80;;;15.50;99.90;;;;;;4964140;28;20234;-64
2023/06/03 09:02:55;;;;;;;1.10;0.90;;;15.40;99.90;;;;;;4981522;28;20316;-64
2023/06/03 09:05:22;;;;;;;2.35;1.00;;;15.40;99.90;;;;;;4975419;28;20269;-64
2023/06/03 09:07:51;;;;;;;1.17;0.75;;;15.40;99.90;;;;;;4993536;28;20288;-65
2023/06/03 09:10:20;;;;;;;2.80;0.98;;;15.50;99.90;;;;;;4959270;28;20707;-65
2023/06/03 09:12:50;;;;;;;1.67;1.08;;;15.60;99.90;;;;;;4984362;28;20236;-65
2023/06/03 09:15:17;;;;;;;1.17;0.77;;;15.70;99.90;;;;;;4982181;28;20242;-65
2023/06/03 09:17:45;;;;;;;1.80;0.82;;;15.70;99.90;;;;;;4970931;28;21018;-64
2023/06/03 09:20:12;;;;;;;0.85;0.65;;;15.70;99.90;;;;;;4991370;28;20249;-64
2023/06/03 09:22:42;;;;;;;1.08;0.98;;;15.60;99.90;;;;;;4993523;28;20739;-64
2023/06/03 09:25:10;;;;;;;2.03;0.82;;;15.80;99.90;;;;;;4992614;28;20348;-64
2023/06/03 09:27:37;;;;;;;1.40;0.98;;;15.80;99.90;;;;;;4971669;28;20965;-64
2023/06/03 09:30:07;;;;;;;5.80;0.95;;;15.90;99.90;;;;;;5002267;28;20925;-64
2023/06/03 09:32:36;;;;;;;2.42;0.80;;;16.00;99.90;;;;;;4978441;28;20475;-64
2023/06/03 09:35:04;;;;;;;1.67;1.05;;;16.20;99.90;;;;;;4999525;28;20400;-64
2023/06/03 09:37:31;;;;;;;0.93;0.80;;;16.20;99.90;;;;;;4982357;28;20968;-64
2023/06/03 09:39:58;;;;;;;2.10;0.80;;;16.20;99.90;;;;;;4990693;28;20289;-64
2023/06/03 09:42:41;;;;;;;1.70;0.80;;;16.20;99.90;;;;;;4976953;28;20273;-64
2023/06/03 09:45:23;;;;;;;1.73;0.70;;;16.20;99.90;;;;;;5002718;28;20608;-64
2023/06/03 09:47:50;;;;;;;1.40;1.00;;;16.40;99.90;;;;;;4976471;28;20572;-64
2023/06/03 09:50:21;;;;;;;0.95;0.80;;;16.50;99.90;;;;;;4982167;28;20230;-64
2023/06/03 09:52:47;;;;;;;1.30;0.80;;;16.50;99.90;;;;;;4992605;28;20327;-65
2023/06/03 09:55:17;;;;;;;1.25;0.77;;;16.40;99.90;;;;;;4993161;28;20697;-64
2023/06/03 09:58:07;;;;;;;5.13;0.95;;;16.30;99.90;;;;;;4969229;28;20726;-65
2023/06/03 10:00:48;;;;;;;1.20;1.10;;;16.30;99.90;;;;;;4998546;28;20316;-64
2023/06/03 10:03:15;;;;;;;1.30;1.15;;;16.40;99.90;;;;;;4975696;28;20226;-64
2023/06/03 10:05:42;;;;;;;1.90;0.90;;;16.70;99.90;;;;;;4997741;28;20221;-64
2023/06/03 10:08:09;;;;;;;2.38;0.90;;;16.90;99.90;;;;;;4988317;28;20340;-64
2023/06/03 10:10:55;;;;;;;6.35;1.95;;;16.90;99.90;;;;;;4973395;28;20226;-64
2023/06/03 10:13:23;;;;;;;1.00;0.90;;;17.00;99.90;;;;;;4963938;28;20199;-65
2023/06/03 10:15:53;;;;;;;0.93;0.82;;;17.10;99.90;;;;;;4976412;28;20222;-64
2023/06/03 10:18:37;;;;;;;1.27;0.98;;;17.10;99.90;;;;;;4980664;28;20223;-64
2023/06/03 10:21:07;;;;;;;1.77;1.00;;;17.10;99.90;;;;;;4988074;28;20225;-64
2023/06/03 10:23:36;;;;;;;1.25;1.00;;;17.00;99.90;;;;;;4994746;28;20198;-64
2023/06/03 10:26:04;;;;;;;1.58;0.90;;;17.00;99.90;;;;;;4979517;28;20289;-64
2023/06/03 10:28:32;;;;;;;1.27;1.00;;;17.10;99.90;;;;;;4973908;28;20739;-64
2023/06/03 10:31:01;;;;;;;1.97;0.90;;;17.10;99.90;;;;;;4962513;28;1091842;-64
2023/06/03 10:33:29;;;;;;;0.90;0.80;;;17.20;99.90;;;;;;4991252;28;20918;-64
2023/06/03 10:35:57;;;;;;;4.55;1.23;;;17.20;99.90;;;;;;4964853;28;20926;-64
2023/06/03 10:38:25;;;;;;;1.63;1.00;;;17.30;99.90;;;;;;4998211;28;20222;-64
2023/06/03 10:40:54;;;;;;;1.55;1.00;;;17.40;99.90;;;;;;4974668;28;20313;-64
2023/06/03 10:43:23;;;;;;;1.63;0.85;;;17.50;99.90;;;;;;5004880;28;20385;-64
2023/06/03 10:45:52;;;;;;;2.13;1.13;;;17.50;99.90;;;;;;4976294;28;20336;-64
2023/06/03 10:48:23;;;;;;;1.85;1.38;;;17.50;99.90;;;;;;5003457;28;21275;-64
2023/06/03 10:51:04;;;;;;;1.88;1.20;;;17.50;99.90;;;;;;4990590;28;20229;-64
2023/06/03 10:53:45;;;;;;;1.48;1.13;;;17.40;99.90;;;;;;4984876;28;20315;-64
2023/06/03 10:56:21;;;;;;;2.67;0.93;;;17.40;99.90;;;;;;4982339;28;20630;-64
2023/06/03 10:58:58;;;;;;;6.85;1.30;;;17.20;99.90;;;;;;4991048;28;20201;-64
2023/06/03 11:01:56;;;;;;;1.40;1.00;;;17.30;99.90;;;;;;4968582;28;20688;-64
2023/06/03 11:04:24;;;;;;;2.50;1.05;;;17.40;99.90;;;;;;4991010;28;20232;-64
2023/06/03 11:06:52;;;;;;;4.55;1.30;;;17.40;99.90;;;;;;4968149;28;20400;-64
2023/06/03 11:09:32;;;;;;;1.42;0.90;;;17.40;99.90;;;;;;4997263;28;20271;-64
2023/06/03 11:12:04;;;;;;;6.07;0.70;;;17.50;99.90;;;;;;4968477;28;20203;-64
2023/06/03 11:14:53;;;;;;;2.10;1.00;;;17.50;99.90;;;;;;4988867;28;20354;-64
2023/06/03 11:17:21;;;;;;;5.32;0.98;;;17.60;99.90;;;;;;4960715;28;20317;-64
2023/06/03 11:19:51;;;;;;;1.25;1.00;;;17.70;99.90;;;;;;4999585;28;20670;-64
2023/06/03 11:22:45;;;;;;;4.10;1.00;;;17.70;99.90;;;;;;4978622;28;21028;-64
2023/06/03 11:25:31;;;;;;;2.03;1.08;;;17.70;99.90;;;;;;5002640;28;20601;-64
2023/06/03 11:28:35;;;;;;;3.22;1.02;;;17.80;99.90;;;;;;4975111;28;20315;-64
2023/06/03 11:31:03;;;;;;;1.60;1.00;;;18.00;99.90;;;;;;4962250;28;20234;-64
2023/06/03 11:33:30;;;;;;;1.63;1.35;;;18.10;99.90;;;;;;4963784;28;20234;-64
2023/06/03 11:35:59;;;;;;;3.78;1.20;;;18.10;99.90;;;;;;4979227;28;21139;-64
2023/06/03 11:38:59;;;;;;;3.50;1.05;;;18.20;99.90;;;;;;4991343;28;20647;-64
2023/06/03 11:42:00;;;;;;;1.67;0.93;;;18.10;99.90;;;;;;4993284;28;20667;-64
2023/06/03 11:44:26;;;;;;;2.08;1.20;;;18.00;99.90;;;;;;4997250;28;20672;-64
2023/06/03 11:46:53;;;;;;;1.58;1.20;;;18.00;99.90;;;;;;4973514;28;20789;-64
2023/06/03 11:49:21;;;;;;;2.95;0.90;;;18.00;99.90;;;;;;5001127;28;20588;-64
2023/06/03 11:51:52;;;;;;;3.85;1.10;;;18.00;99.90;;;;;;4987855;28;20213;-64
2023/06/03 11:54:21;;;;;;;3.25;1.00;;;18.10;99.90;;;;;;4989277;28;20291;-64
2023/06/03 11:56:50;;;;;;;1.45;0.80;;;18.10;99.90;;;;;;5001913;28;20234;-64
2023/06/03 11:59:20;;;;;;;2.72;0.90;;;18.30;99.90;;;;;;4995635;28;21052;-64
2023/06/03 12:02:01;;;;;;;3.40;0.90;;;18.30;99.90;;;;;;5000466;28;20218;-64
2023/06/03 12:04:28;;;;;;;2.42;1.00;;;18.10;99.90;;;;;;4974711;28;20272;-64
2023/06/03 12:06:57;;;;;;;0.70;0.70;;;18.10;99.90;;;;;;4981733;28;20387;-64
2023/06/03 12:09:26;;;;;;;1.52;1.10;;;18.20;99.90;;;;;;4992510;28;20302;-64
2023/06/03 12:11:54;;;;;;;2.47;1.00;;;18.20;99.90;;;;;;4998643;28;20217;-65
2023/06/03 12:14:29;;;;;;;3.47;0.88;;;18.10;99.90;;;;;;4993240;28;20292;-64
2023/06/03 12:16:57;;;;;;;4.65;1.00;;;18.30;99.90;;;;;;4997623;28;20232;-64
2023/06/03 12:19:24;;;;;;;1.50;0.93;;;18.40;99.90;;;;;;4964432;28;20757;-64
2023/06/03 12:22:00;;;;;;;2.13;1.15;;;18.40;99.90;;;;;;4989378;28;21175;-64
2023/06/03 12:24:29;;;;;;;3.28;2.97;;;18.30;99.90;;;;;;4983263;28;20229;-64
2023/06/03 12:26:56;;;;;;;1.58;1.00;;;18.50;99.90;;;;;;4985137;28;20226;-64
2023/06/03 12:29:24;;;;;;;1.52;1.08;;;18.40;99.90;;;;;;4995166;28;20306;-65
2023/06/03 12:32:01;;;;;;;1.52;0.90;;;18.40;99.90;;;;;;5002974;28;20230;-64
2023/06/03 12:34:33;;;;;;;1.33;1.08;;;18.40;99.90;;;;;;4975671;28;20283;-64
2023/06/03 12:37:02;;;;;;;0.80;0.70;;;18.40;99.90;;;;;;4983550;28;21572;-64
2023/06/03 12:39:47;;;;;;;1.98;1.10;;;18.30;99.90;;;;;;4991277;28;20218;-64
2023/06/03 12:42:18;;;;;;;3.13;1.00;;;18.30;99.90;;;;;;4999484;28;20462;-65
2023/06/03 12:44:46;;;;;;;1.65;1.17;;;18.50;99.90;;;;;;4998572;28;20256;-64
2023/06/03 12:47:14;;;;;;;0.80;0.80;;;18.50;99.90;;;;;;5003306;28;20459;-65
2023/06/03 12:49:41;;;;;;;4.50;1.00;;;18.50;99.90;;;;;;4975433;28;20722;-64
2023/06/03 12:52:17;;;;;;;1.33;0.80;;;18.50;99.90;;;;;;4988236;28;20474;-64
2023/06/03 12:54:47;;;;;;;1.27;0.98;;;18.50;99.90;;;;;;4978870;28;20676;-65
2023/06/03 12:57:15;;;;;;;1.77;0.98;;;18.40;99.90;;;;;;4995626;28;20218;-64
2023/06/03 13:00:05;;;;;;;0.80;0.80;;;18.40;99.90;;;;;;4999066;28;20230;-64
2023/06/03 13:02:32;;;;;;;2.05;0.90;;;18.40;99.90;;;;;;5005024;28;20195;-64
2023/06/03 13:04:59;;;;;;;3.05;1.90;;;18.50;99.90;;;;;;4967764;28;20314;-64
2023/06/03 13:07:27;;;;;;;1.48;1.17;;;18.60;99.90;;;;;;5003577;28;20372;-65